sensor_id;sensor_type;location;lat;lon;timestamp;pressure;altitude;pressure_sealevel;temperature;humidity
8140;BME280;4111;50.972;7.072;2023-04-26T00:00:28;101399.00;;;6.15;77.50
8140;BME280;4111;50.972;7.072;2023-04-26T00:02:55;101394.44;;;6.15;77.67
8140;BME280;4111;50.972;7.072;2023-04-26T00:05:23;101395.31;;;6.23;77.67
8140;BME280;4111;50.972;7.072;2023-04-26T00:07:50;101406.53;;;6.26;77.79
8140;BME280;4111;50.972;7.072;2023-04-26T00:10:16;101401.50;;;6.17;77.96
8140;BME280;4111;50.972;7.072;2023-04-26T00:12:43;101404.56;;;6.07;78.12
8140;BME280;4111;50.972;7.072;2023-04-26T00:15:09;101402.44;;;5.95;78.34
8140;BME280;4111;50.972;7.072;2023-04-26T00:17:36;101401.63;;;5.95;78.83
8140;BME280;4111;50.972;7.072;2023-04-26T00:20:03;101400.69;;;5.88;78.74
8140;BME280;4111;50.972;7.072;2023-04-26T00:22:32;101401.22;;;5.70;78.72
8140;BME280;4111;50.972;7.072;2023-04-26T00:24:59;101394.28;;;5.54;79.42
8140;BME280;4111;50.972;7.072;2023-04-26T00:27:25;101398.66;;;5.55;79.63
8140;BME280;4111;50.972;7.072;2023-04-26T00:29:52;101399.28;;;5.57;79.45
8140;BME280;4111;50.972;7.072;2023-04-26T00:32:18;101402.38;;;5.54;79.74
8140;BME280;4111;50.972;7.072;2023-04-26T00:34:44;101401.09;;;5.50;80.33
8140;BME280;4111;50.972;7.072;2023-04-26T00:37:11;101392.75;;;5.45;80.15
8140;BME280;4111;50.972;7.072;2023-04-26T00:39:38;101391.94;;;5.44;80.25
8140;BME280;4111;50.972;7.072;2023-04-26T00:42:04;101386.44;;;5.31;80.40
8140;BME280;4111;50.972;7.072;2023-04-26T00:44:31;101393.88;;;5.29;80.70
8140;BME280;4111;50.972;7.072;2023-04-26T00:46:57;101390.91;;;5.17;80.82
8140;BME280;4111;50.972;7.072;2023-04-26T00:49:24;101395.78;;;5.07;81.18
8140;BME280;4111;50.972;7.072;2023-04-26T00:51:54;101392.09;;;5.08;81.12
8140;BME280;4111;50.972;7.072;2023-04-26T00:54:20;101390.72;;;5.19;81.10
8140;BME280;4111;50.972;7.072;2023-04-26T00:56:47;101390.34;;;5.00;81.39
8140;BME280;4111;50.972;7.072;2023-04-26T00:59:18;101388.63;;;4.92;81.48
8140;BME280;4111;50.972;7.072;2023-04-26T01:01:45;101382.75;;;4.82;82.06
8140;BME280;4111;50.972;7.072;2023-04-26T01:04:14;101388.56;;;4.86;81.83
8140;BME280;4111;50.972;7.072;2023-04-26T01:06:41;101387.72;;;4.85;82.08
8140;BME280;4111;50.972;7.072;2023-04-26T01:09:07;101392.34;;;4.91;82.11
8140;BME280;4111;50.972;7.072;2023-04-26T01:11:36;101394.19;;;4.91;82.13
8140;BME280;4111;50.972;7.072;2023-04-26T01:14:04;101395.44;;;4.88;82.02
8140;BME280;4111;50.972;7.072;2023-04-26T01:16:31;101400.03;;;4.94;82.24
8140;BME280;4111;50.972;7.072;2023-04-26T01:19:06;101406.44;;;4.93;82.19
8140;BME280;4111;50.972;7.072;2023-04-26T01:21:33;101411.16;;;4.70;82.58
8140;BME280;4111;50.972;7.072;2023-04-26T01:24:00;101409.00;;;4.59;83.28
8140;BME280;4111;50.972;7.072;2023-04-26T01:26:26;101407.31;;;4.57;83.54
8140;BME280;4111;50.972;7.072;2023-04-26T01:28:52;101410.44;;;4.76;83.76
8140;BME280;4111;50.972;7.072;2023-04-26T01:31:19;101414.38;;;4.59;83.61
8140;BME280;4111;50.972;7.072;2023-04-26T01:33:46;101405.78;;;4.48;84.14
8140;BME280;4111;50.972;7.072;2023-04-26T01:36:12;101404.38;;;4.52;84.07
8140;BME280;4111;50.972;7.072;2023-04-26T01:38:39;101400.78;;;4.45;84.28
8140;BME280;4111;50.972;7.072;2023-04-26T01:41:05;101402.97;;;4.56;84.58
8140;BME280;4111;50.972;7.072;2023-04-26T01:43:32;101403.81;;;4.42;84.33
8140;BME280;4111;50.972;7.072;2023-04-26T01:45:58;101403.31;;;4.32;84.71
8140;BME280;4111;50.972;7.072;2023-04-26T01:48:25;101402.13;;;4.20;85.16
8140;BME280;4111;50.972;7.072;2023-04-26T01:50:51;101403.81;;;4.42;84.91
8140;BME280;4111;50.972;7.072;2023-04-26T01:53:17;101399.50;;;4.41;85.17
8140;BME280;4111;50.972;7.072;2023-04-26T01:55:44;101391.72;;;4.31;85.45
8140;BME280;4111;50.972;7.072;2023-04-26T01:58:10;101396.41;;;4.44;85.36
8140;BME280;4111;50.972;7.072;2023-04-26T02:00:37;101400.19;;;4.50;84.95
8140;BME280;4111;50.972;7.072;2023-04-26T02:03:03;101400.50;;;4.40;84.78
8140;BME280;4111;50.972;7.072;2023-04-26T02:05:30;101398.09;;;4.30;85.31
8140;BME280;4111;50.972;7.072;2023-04-26T02:07:56;101393.59;;;4.16;85.12
8140;BME280;4111;50.972;7.072;2023-04-26T02:10:22;101404.09;;;4.11;85.05
8140;BME280;4111;50.972;7.072;2023-04-26T02:12:49;101400.19;;;4.13;84.98
8140;BME280;4111;50.972;7.072;2023-04-26T02:15:16;101392.50;;;4.10;85.00
8140;BME280;4111;50.972;7.072;2023-04-26T02:17:42;101396.75;;;4.05;84.91
8140;BME280;4111;50.972;7.072;2023-04-26T02:20:09;101398.50;;;4.12;84.83
8140;BME280;4111;50.972;7.072;2023-04-26T02:22:36;101399.44;;;4.20;84.91
8140;BME280;4111;50.972;7.072;2023-04-26T02:25:03;101400.66;;;4.17;84.79
8140;BME280;4111;50.972;7.072;2023-04-26T02:27:30;101404.66;;;4.06;84.79
8140;BME280;4111;50.972;7.072;2023-04-26T02:29:58;101399.00;;;4.01;85.04
8140;BME280;4111;50.972;7.072;2023-04-26T02:32:24;101411.53;;;3.94;85.27
8140;BME280;4111;50.972;7.072;2023-04-26T02:34:51;101408.19;;;3.92;85.06
8140;BME280;4111;50.972;7.072;2023-04-26T02:37:17;101410.78;;;3.85;84.91
8140;BME280;4111;50.972;7.072;2023-04-26T02:39:44;101400.59;;;3.81;85.17
8140;BME280;4111;50.972;7.072;2023-04-26T02:42:10;101397.25;;;3.78;85.09
8140;BME280;4111;50.972;7.072;2023-04-26T02:44:37;101398.06;;;3.79;85.61
8140;BME280;4111;50.972;7.072;2023-04-26T02:47:04;101398.06;;;3.79;85.18
8140;BME280;4111;50.972;7.072;2023-04-26T02:49:31;101389.47;;;3.84;85.07
8140;BME280;4111;50.972;7.072;2023-04-26T02:51:57;101394.84;;;3.84;85.34
8140;BME280;4111;50.972;7.072;2023-04-26T02:54:24;101392.25;;;3.90;85.06
8140;BME280;4111;50.972;7.072;2023-04-26T02:56:51;101397.44;;;3.77;85.23
8140;BME280;4111;50.972;7.072;2023-04-26T02:59:17;101395.69;;;3.69;85.27
8140;BME280;4111;50.972;7.072;2023-04-26T03:01:43;101395.59;;;3.63;85.20
8140;BME280;4111;50.972;7.072;2023-04-26T03:04:10;101392.50;;;3.51;85.17
8140;BME280;4111;50.972;7.072;2023-04-26T03:06:37;101401.13;;;3.61;85.25
8140;BME280;4111;50.972;7.072;2023-04-26T03:09:04;101396.50;;;3.55;85.23
8140;BME280;4111;50.972;7.072;2023-04-26T03:11:31;101393.16;;;3.53;85.01
8140;BME280;4111;50.972;7.072;2023-04-26T03:13:57;101391.50;;;3.52;84.73
8140;BME280;4111;50.972;7.072;2023-04-26T03:16:26;101394.00;;;3.53;84.70
8140;BME280;4111;50.972;7.072;2023-04-26T03:18:53;101398.25;;;3.33;85.18
8140;BME280;4111;50.972;7.072;2023-04-26T03:21:20;101394.47;;;3.42;85.50
8140;BME280;4111;50.972;7.072;2023-04-26T03:23:47;101391.47;;;3.37;85.88
8140;BME280;4111;50.972;7.072;2023-04-26T03:26:13;101388.72;;;3.30;86.13
8140;BME280;4111;50.972;7.072;2023-04-26T03:28:40;101397.84;;;3.21;85.98
8140;BME280;4111;50.972;7.072;2023-04-26T03:31:06;101396.47;;;3.25;85.94
8140;BME280;4111;50.972;7.072;2023-04-26T03:33:33;101391.47;;;3.22;86.06
8140;BME280;4111;50.972;7.072;2023-04-26T03:35:59;101381.38;;;3.24;86.07
8140;BME280;4111;50.972;7.072;2023-04-26T03:38:26;101381.00;;;3.27;86.15
8140;BME280;4111;50.972;7.072;2023-04-26T03:40:52;101379.06;;;3.21;86.23
8140;BME280;4111;50.972;7.072;2023-04-26T03:43:19;101388.13;;;3.20;86.13
8140;BME280;4111;50.972;7.072;2023-04-26T03:45:46;101388.00;;;3.13;86.03
8140;BME280;4111;50.972;7.072;2023-04-26T03:48:14;101397.28;;;3.11;86.12
8140;BME280;4111;50.972;7.072;2023-04-26T03:50:42;101386.34;;;3.12;86.02
8140;BME280;4111;50.972;7.072;2023-04-26T03:53:10;101382.16;;;3.10;86.19
8140;BME280;4111;50.972;7.072;2023-04-26T03:55:37;101384.25;;;3.23;86.11
8140;BME280;4111;50.972;7.072;2023-04-26T03:58:03;101391.81;;;3.19;85.97
8140;BME280;4111;50.972;7.072;2023-04-26T04:00:36;101387.41;;;3.26;85.75
8140;BME280;4111;50.972;7.072;2023-04-26T04:03:03;101388.84;;;3.14;85.58
8140;BME280;4111;50.972;7.072;2023-04-26T04:05:29;101389.94;;;3.05;86.01
8140;BME280;4111;50.972;7.072;2023-04-26T04:07:56;101387.69;;;2.93;85.98
8140;BME280;4111;50.972;7.072;2023-04-26T04:10:23;101393.28;;;2.84;86.12
8140;BME280;4111;50.972;7.072;2023-04-26T04:12:49;101400.13;;;2.86;86.23
8140;BME280;4111;50.972;7.072;2023-04-26T04:15:17;101399.13;;;2.87;86.14
8140;BME280;4111;50.972;7.072;2023-04-26T04:17:44;101398.78;;;2.90;85.57
8140;BME280;4111;50.972;7.072;2023-04-26T04:20:11;101398.41;;;2.93;85.61
8140;BME280;4111;50.972;7.072;2023-04-26T04:22:38;101401.03;;;3.02;85.44
8140;BME280;4111;50.972;7.072;2023-04-26T04:25:08;101400.53;;;2.98;85.39
8140;BME280;4111;50.972;7.072;2023-04-26T04:27:39;101391.00;;;2.95;85.98
8140;BME280;4111;50.972;7.072;2023-04-26T04:30:08;101402.22;;;2.99;85.84
8140;BME280;4111;50.972;7.072;2023-04-26T04:32:35;101402.41;;;2.97;85.97
8140;BME280;4111;50.972;7.072;2023-04-26T04:35:02;101411.00;;;2.93;86.27
8140;BME280;4111;50.972;7.072;2023-04-26T04:37:28;101410.50;;;2.89;86.54
8140;BME280;4111;50.972;7.072;2023-04-26T04:39:58;101416.22;;;2.86;86.59
8140;BME280;4111;50.972;7.072;2023-04-26T04:42:25;101415.22;;;2.87;86.88
8140;BME280;4111;50.972;7.072;2023-04-26T04:44:53;101421.91;;;2.91;86.76
8140;BME280;4111;50.972;7.072;2023-04-26T04:47:20;101419.03;;;2.93;87.12
8140;BME280;4111;50.972;7.072;2023-04-26T04:49:46;101415.16;;;2.95;86.66
8140;BME280;4111;50.972;7.072;2023-04-26T04:52:13;101414.19;;;2.88;86.92
8140;BME280;4111;50.972;7.072;2023-04-26T04:54:41;101413.31;;;2.96;87.08
8140;BME280;4111;50.972;7.072;2023-04-26T04:57:08;101426.03;;;3.02;86.88
8140;BME280;4111;50.972;7.072;2023-04-26T04:59:34;101426.19;;;3.01;86.90
8140;BME280;4111;50.972;7.072;2023-04-26T05:02:01;101428.81;;;3.09;87.19
8140;BME280;4111;50.972;7.072;2023-04-26T05:04:27;101423.44;;;3.09;87.11
8140;BME280;4111;50.972;7.072;2023-04-26T05:06:54;101422.31;;;3.03;87.17
8140;BME280;4111;50.972;7.072;2023-04-26T05:09:21;101432.16;;;3.11;87.46
8140;BME280;4111;50.972;7.072;2023-04-26T05:11:47;101441.84;;;3.12;87.44
8140;BME280;4111;50.972;7.072;2023-04-26T05:14:14;101435.50;;;3.13;87.74
8140;BME280;4111;50.972;7.072;2023-04-26T05:16:40;101438.16;;;3.13;87.55
8140;BME280;4111;50.972;7.072;2023-04-26T05:19:06;101443.13;;;3.24;87.58
8140;BME280;4111;50.972;7.072;2023-04-26T05:21:35;101448.09;;;3.27;87.65
8140;BME280;4111;50.972;7.072;2023-04-26T05:24:01;101448.88;;;3.36;87.96
8140;BME280;4111;50.972;7.072;2023-04-26T05:26:28;101447.13;;;3.43;88.00
8140;BME280;4111;50.972;7.072;2023-04-26T05:28:54;101454.28;;;3.51;87.84
8140;BME280;4111;50.972;7.072;2023-04-26T05:31:21;101453.53;;;3.57;87.87
8140;BME280;4111;50.972;7.072;2023-04-26T05:33:47;101457.34;;;3.63;88.22
8140;BME280;4111;50.972;7.072;2023-04-26T05:36:14;101453.09;;;3.68;88.29
8140;BME280;4111;50.972;7.072;2023-04-26T05:38:40;101457.91;;;3.73;88.46
8140;BME280;4111;50.972;7.072;2023-04-26T05:41:07;101454.31;;;3.81;88.33
8140;BME280;4111;50.972;7.072;2023-04-26T05:43:33;101459.53;;;3.97;88.17
8140;BME280;4111;50.972;7.072;2023-04-26T05:46:00;101461.66;;;4.02;87.76
8140;BME280;4111;50.972;7.072;2023-04-26T05:48:27;101461.19;;;3.98;87.80
8140;BME280;4111;50.972;7.072;2023-04-26T05:50:55;101464.97;;;4.04;88.03
8140;BME280;4111;50.972;7.072;2023-04-26T05:53:21;101457.94;;;4.17;88.08
8140;BME280;4111;50.972;7.072;2023-04-26T05:55:48;101465.44;;;4.37;88.11
8140;BME280;4111;50.972;7.072;2023-04-26T05:58:14;101468.19;;;4.44;87.91
8140;BME280;4111;50.972;7.072;2023-04-26T06:00:41;101467.25;;;4.51;87.75
8140;BME280;4111;50.972;7.072;2023-04-26T06:03:07;101461.75;;;4.60;88.16
8140;BME280;4111;50.972;7.072;2023-04-26T06:05:35;101469.16;;;4.72;87.91
8140;BME280;4111;50.972;7.072;2023-04-26T06:08:03;101468.09;;;4.88;88.26
8140;BME280;4111;50.972;7.072;2023-04-26T06:10:30;101468.31;;;4.93;88.20
8140;BME280;4111;50.972;7.072;2023-04-26T06:12:56;101471.97;;;5.07;88.15
8140;BME280;4111;50.972;7.072;2023-04-26T06:15:23;101466.72;;;5.21;88.00
8140;BME280;4111;50.972;7.072;2023-04-26T06:17:49;101466.25;;;5.39;87.61
8140;BME280;4111;50.972;7.072;2023-04-26T06:20:15;101462.41;;;5.48;87.40
8140;BME280;4111;50.972;7.072;2023-04-26T06:22:42;101472.91;;;5.64;86.69
8140;BME280;4111;50.972;7.072;2023-04-26T06:25:08;101485.66;;;5.77;86.44
8140;BME280;4111;50.972;7.072;2023-04-26T06:27:35;101482.19;;;5.90;86.15
8140;BME280;4111;50.972;7.072;2023-04-26T06:30:05;101475.53;;;6.14;86.64
8140;BME280;4111;50.972;7.072;2023-04-26T06:32:33;101485.59;;;6.33;86.03
8140;BME280;4111;50.972;7.072;2023-04-26T06:34:59;101482.31;;;6.38;84.90
8140;BME280;4111;50.972;7.072;2023-04-26T06:37:27;101482.41;;;6.65;84.53
8140;BME280;4111;50.972;7.072;2023-04-26T06:39:53;101481.19;;;6.74;83.79
8140;BME280;4111;50.972;7.072;2023-04-26T06:42:19;101485.78;;;6.73;82.67
8140;BME280;4111;50.972;7.072;2023-04-26T06:44:46;101486.25;;;6.97;82.39
8140;BME280;4111;50.972;7.072;2023-04-26T06:47:12;101486.88;;;7.06;81.05
8140;BME280;4111;50.972;7.072;2023-04-26T06:49:39;101484.59;;;7.09;80.68
8140;BME280;4111;50.972;7.072;2023-04-26T06:52:06;101484.41;;;7.24;80.27
8140;BME280;4111;50.972;7.072;2023-04-26T06:54:34;101482.75;;;7.23;79.68
8140;BME280;4111;50.972;7.072;2023-04-26T06:57:08;101481.09;;;7.29;79.41
8140;BME280;4111;50.972;7.072;2023-04-26T06:59:35;101484.41;;;7.18;78.70
8140;BME280;4111;50.972;7.072;2023-04-26T07:02:01;101477.78;;;7.33;78.60
8140;BME280;4111;50.972;7.072;2023-04-26T07:04:28;101478.41;;;7.49;78.55
8140;BME280;4111;50.972;7.072;2023-04-26T07:06:55;101474.03;;;7.61;78.56
8140;BME280;4111;50.972;7.072;2023-04-26T07:09:22;101478.41;;;7.62;78.44
8140;BME280;4111;50.972;7.072;2023-04-26T07:11:49;101487.72;;;7.80;77.64
8140;BME280;4111;50.972;7.072;2023-04-26T07:14:15;101481.94;;;7.76;77.22
8140;BME280;4111;50.972;7.072;2023-04-26T07:16:42;101480.84;;;7.84;76.54
8140;BME280;4111;50.972;7.072;2023-04-26T07:19:09;101480.69;;;7.79;75.58
8140;BME280;4111;50.972;7.072;2023-04-26T07:21:36;101480.69;;;7.79;75.29
8140;BME280;4111;50.972;7.072;2023-04-26T07:24:02;101477.34;;;7.90;76.35
8140;BME280;4111;50.972;7.072;2023-04-26T07:26:29;101486.25;;;8.04;76.01
8140;BME280;4111;50.972;7.072;2023-04-26T07:28:56;101479.81;;;7.98;75.46
8140;BME280;4111;50.972;7.072;2023-04-26T07:31:23;101479.19;;;7.89;74.52
8140;BME280;4111;50.972;7.072;2023-04-26T07:33:49;101481.91;;;7.96;74.80
8140;BME280;4111;50.972;7.072;2023-04-26T07:36:16;101475.81;;;8.14;74.38
8140;BME280;4111;50.972;7.072;2023-04-26T07:38:43;101468.88;;;8.38;74.60
8140;BME280;4111;50.972;7.072;2023-04-26T07:41:09;101471.28;;;8.66;74.31
8140;BME280;4111;50.972;7.072;2023-04-26T07:43:38;101470.56;;;8.84;73.15
8140;BME280;4111;50.972;7.072;2023-04-26T07:46:04;101471.97;;;8.93;72.54
8140;BME280;4111;50.972;7.072;2023-04-26T07:48:31;101465.13;;;8.84;71.32
8140;BME280;4111;50.972;7.072;2023-04-26T07:51:09;101474.53;;;8.82;70.45
8140;BME280;4111;50.972;7.072;2023-04-26T07:53:37;101469.53;;;8.85;70.31
8140;BME280;4111;50.972;7.072;2023-04-26T07:56:04;101471.22;;;8.80;69.16
8140;BME280;4111;50.972;7.072;2023-04-26T07:58:34;101472.28;;;8.72;67.94
8140;BME280;4111;50.972;7.072;2023-04-26T08:01:01;101477.03;;;8.77;67.73
8140;BME280;4111;50.972;7.072;2023-04-26T08:03:29;101486.63;;;8.79;68.56
8140;BME280;4111;50.972;7.072;2023-04-26T08:05:56;101473.91;;;8.80;68.60
8140;BME280;4111;50.972;7.072;2023-04-26T08:08:25;101473.19;;;8.98;68.59
8140;BME280;4111;50.972;7.072;2023-04-26T08:10:52;101477.72;;;9.04;68.62
8140;BME280;4111;50.972;7.072;2023-04-26T08:13:19;101469.59;;;9.04;67.95
8140;BME280;4111;50.972;7.072;2023-04-26T08:15:46;101471.53;;;8.97;68.00
8140;BME280;4111;50.972;7.072;2023-04-26T08:18:13;101465.41;;;9.08;68.45
8140;BME280;4111;50.972;7.072;2023-04-26T08:20:39;101461.13;;;8.93;67.60
8140;BME280;4111;50.972;7.072;2023-04-26T08:23:06;101463.84;;;8.93;67.54
8140;BME280;4111;50.972;7.072;2023-04-26T08:25:32;101467.59;;;8.92;67.27
8140;BME280;4111;50.972;7.072;2023-04-26T08:28:01;101464.19;;;9.04;66.50
8140;BME280;4111;50.972;7.072;2023-04-26T08:30:28;101474.34;;;9.15;65.77
8140;BME280;4111;50.972;7.072;2023-04-26T08:32:54;101470.06;;;9.26;64.73
8140;BME280;4111;50.972;7.072;2023-04-26T08:35:21;101469.78;;;9.09;64.05
8140;BME280;4111;50.972;7.072;2023-04-26T08:37:48;101468.97;;;9.08;64.36
8140;BME280;4111;50.972;7.072;2023-04-26T08:40:21;101464.53;;;9.14;63.27
8140;BME280;4111;50.972;7.072;2023-04-26T08:42:49;101473.38;;;9.35;62.31
8140;BME280;4111;50.972;7.072;2023-04-26T08:45:19;101469.94;;;9.46;62.33
8140;BME280;4111;50.972;7.072;2023-04-26T08:47:50;101469.38;;;9.62;61.56
8140;BME280;4111;50.972;7.072;2023-04-26T08:50:20;101474.69;;;9.76;61.61
8140;BME280;4111;50.972;7.072;2023-04-26T08:52:49;101472.13;;;9.81;61.23
8140;BME280;4111;50.972;7.072;2023-04-26T08:55:17;101464.59;;;9.83;61.45
8140;BME280;4111;50.972;7.072;2023-04-26T08:57:46;101468.06;;;9.90;61.34
8140;BME280;4111;50.972;7.072;2023-04-26T09:00:14;101467.00;;;9.91;60.80
8140;BME280;4111;50.972;7.072;2023-04-26T09:02:45;101464.75;;;9.88;60.12
8140;BME280;4111;50.972;7.072;2023-04-26T09:05:12;101463.63;;;9.96;60.47
8140;BME280;4111;50.972;7.072;2023-04-26T09:07:40;101461.34;;;10.11;60.84
8140;BME280;4111;50.972;7.072;2023-04-26T09:10:08;101462.66;;;10.08;59.81
8140;BME280;4111;50.972;7.072;2023-04-26T09:12:35;101460.31;;;10.12;58.92
8140;BME280;4111;50.972;7.072;2023-04-26T09:15:02;101470.56;;;10.10;59.58
8140;BME280;4111;50.972;7.072;2023-04-26T09:20:00;101460.47;;;10.17;59.43
8140;BME280;4111;50.972;7.072;2023-04-26T09:24:59;101467.03;;;10.65;59.18
8140;BME280;4111;50.972;7.072;2023-04-26T09:30:06;101464.38;;;10.77;57.47
8140;BME280;4111;50.972;7.072;2023-04-26T09:32:55;101462.53;;;10.59;57.37
8140;BME280;4111;50.972;7.072;2023-04-26T09:35:35;101459.66;;;10.54;56.68
8140;BME280;4111;50.972;7.072;2023-04-26T09:38:04;101454.31;;;10.47;56.08
8140;BME280;4111;50.972;7.072;2023-04-26T09:40:39;101456.94;;;10.54;55.51
8140;BME280;4111;50.972;7.072;2023-04-26T09:43:09;101452.25;;;10.42;54.08
8140;BME280;4111;50.972;7.072;2023-04-26T09:45:45;101441.03;;;10.57;53.53
8140;BME280;4111;50.972;7.072;2023-04-26T09:48:22;101445.47;;;10.82;54.28
8140;BME280;4111;50.972;7.072;2023-04-26T09:50:51;101444.38;;;11.13;53.63
8140;BME280;4111;50.972;7.072;2023-04-26T09:55:55;101435.72;;;10.93;52.53
8140;BME280;4111;50.972;7.072;2023-04-26T09:58:22;101432.25;;;10.85;52.66
8140;BME280;4111;50.972;7.072;2023-04-26T10:00:50;101434.00;;;10.80;52.71
8140;BME280;4111;50.972;7.072;2023-04-26T10:03:18;101439.28;;;10.63;53.01
8140;BME280;4111;50.972;7.072;2023-04-26T10:05:45;101435.47;;;10.82;52.76
8140;BME280;4111;50.972;7.072;2023-04-26T10:08:13;101436.22;;;11.13;51.89
8140;BME280;4111;50.972;7.072;2023-04-26T10:10:40;101430.13;;;11.29;51.27
8140;BME280;4111;50.972;7.072;2023-04-26T10:13:07;101418.41;;;11.29;51.38
8140;BME280;4111;50.972;7.072;2023-04-26T10:15:34;101430.19;;;11.11;50.59
8140;BME280;4111;50.972;7.072;2023-04-26T10:18:01;101429.72;;;11.02;50.28
8140;BME280;4111;50.972;7.072;2023-04-26T10:20:27;101427.22;;;11.01;50.32
8140;BME280;4111;50.972;7.072;2023-04-26T10:22:56;101432.06;;;10.99;50.40
8140;BME280;4111;50.972;7.072;2023-04-26T10:25:37;101426.50;;;10.94;50.10
8140;BME280;4111;50.972;7.072;2023-04-26T10:28:04;101428.41;;;11.05;50.46
8140;BME280;4111;50.972;7.072;2023-04-26T10:30:31;101422.59;;;10.89;50.12
8140;BME280;4111;50.972;7.072;2023-04-26T10:35:28;101418.00;;;11.02;49.96
8140;BME280;4111;50.972;7.072;2023-04-26T10:38:16;101417.22;;;11.13;49.93
8140;BME280;4111;50.972;7.072;2023-04-26T10:40:42;101413.09;;;11.22;49.85
8140;BME280;4111;50.972;7.072;2023-04-26T10:45:38;101422.56;;;11.55;48.26
8140;BME280;4111;50.972;7.072;2023-04-26T10:48:17;101413.22;;;11.63;47.30
8140;BME280;4111;50.972;7.072;2023-04-26T10:53:29;101401.75;;;11.96;47.60
8140;BME280;4111;50.972;7.072;2023-04-26T10:55:56;101398.56;;;11.99;46.48
8140;BME280;4111;50.972;7.072;2023-04-26T10:58:35;101405.31;;;11.85;46.10
8140;BME280;4111;50.972;7.072;2023-04-26T11:01:14;101412.16;;;11.99;46.52
8140;BME280;4111;50.972;7.072;2023-04-26T11:04:06;101406.34;;;12.07;47.54
8140;BME280;4111;50.972;7.072;2023-04-26T11:06:53;101409.44;;;11.99;46.86
8140;BME280;4111;50.972;7.072;2023-04-26T11:09:38;101412.88;;;11.83;46.10
8140;BME280;4111;50.972;7.072;2023-04-26T11:12:10;101415.25;;;11.67;45.79
8140;BME280;4111;50.972;7.072;2023-04-26T11:14:37;101413.47;;;11.73;47.09
8140;BME280;4111;50.972;7.072;2023-04-26T11:17:11;101402.91;;;11.77;46.85
8140;BME280;4111;50.972;7.072;2023-04-26T11:19:40;101402.69;;;11.66;47.78
8140;BME280;4111;50.972;7.072;2023-04-26T11:22:07;101393.00;;;11.59;47.50
8140;BME280;4111;50.972;7.072;2023-04-26T11:24:34;101391.81;;;11.66;48.07
8140;BME280;4111;50.972;7.072;2023-04-26T11:27:08;101388.72;;;11.86;47.94
8140;BME280;4111;50.972;7.072;2023-04-26T11:29:35;101391.34;;;11.93;47.56
8140;BME280;4111;50.972;7.072;2023-04-26T11:32:02;101392.72;;;12.07;47.61
8140;BME280;4111;50.972;7.072;2023-04-26T11:34:35;101384.19;;;12.16;48.28
8140;BME280;4111;50.972;7.072;2023-04-26T11:37:04;101380.09;;;12.01;46.58
8140;BME280;4111;50.972;7.072;2023-04-26T11:39:32;101383.28;;;11.98;46.18
8140;BME280;4111;50.972;7.072;2023-04-26T11:42:08;101377.81;;;12.10;46.32
8140;BME280;4111;50.972;7.072;2023-04-26T11:44:37;101370.34;;;12.17;46.02
8140;BME280;4111;50.972;7.072;2023-04-26T11:47:07;101371.56;;;12.38;45.71
8140;BME280;4111;50.972;7.072;2023-04-26T11:49:37;101381.28;;;12.34;45.34
8140;BME280;4111;50.972;7.072;2023-04-26T11:52:05;101376.91;;;12.33;44.96
8140;BME280;4111;50.972;7.072;2023-04-26T11:54:33;101378.06;;;12.08;44.94
8140;BME280;4111;50.972;7.072;2023-04-26T11:57:00;101375.44;;;12.14;45.47
8140;BME280;4111;50.972;7.072;2023-04-26T11:59:40;101380.13;;;12.18;45.09
8140;BME280;4111;50.972;7.072;2023-04-26T12:02:06;101376.03;;;12.04;44.53
8140;BME280;4111;50.972;7.072;2023-04-26T12:04:33;101374.97;;;12.17;44.57
8140;BME280;4111;50.972;7.072;2023-04-26T12:07:03;101367.41;;;12.36;45.00
8140;BME280;4111;50.972;7.072;2023-04-26T12:09:29;101362.50;;;12.49;45.63
8140;BME280;4111;50.972;7.072;2023-04-26T12:12:01;101366.72;;;12.57;45.73
8140;BME280;4111;50.972;7.072;2023-04-26T12:14:31;101374.78;;;12.64;45.07
8140;BME280;4111;50.972;7.072;2023-04-26T12:17:01;101377.81;;;12.67;44.02
8140;BME280;4111;50.972;7.072;2023-04-26T12:19:48;101376.31;;;12.60;43.94
8140;BME280;4111;50.972;7.072;2023-04-26T12:22:19;101374.56;;;12.54;44.12
8140;BME280;4111;50.972;7.072;2023-04-26T12:24:47;101380.22;;;12.64;44.05
8140;BME280;4111;50.972;7.072;2023-04-26T12:27:19;101380.22;;;12.64;43.16
8140;BME280;4111;50.972;7.072;2023-04-26T12:29:46;101374.78;;;12.64;43.21
8140;BME280;4111;50.972;7.072;2023-04-26T12:32:12;101366.97;;;12.56;44.38
8140;BME280;4111;50.972;7.072;2023-04-26T12:34:38;101379.47;;;12.68;44.93
8140;BME280;4111;50.972;7.072;2023-04-26T12:37:05;101373.59;;;12.60;44.64
8140;BME280;4111;50.972;7.072;2023-04-26T12:39:31;101379.72;;;12.67;45.43
8140;BME280;4111;50.972;7.072;2023-04-26T12:41:58;101378.16;;;12.71;44.79
8140;BME280;4111;50.972;7.072;2023-04-26T12:44:24;101373.78;;;12.70;44.74
8140;BME280;4111;50.972;7.072;2023-04-26T12:46:51;101375.66;;;12.69;44.91
8140;BME280;4111;50.972;7.072;2023-04-26T12:49:18;101368.34;;;12.70;45.39
8140;BME280;4111;50.972;7.072;2023-04-26T12:51:44;101370.84;;;12.60;44.68
8140;BME280;4111;50.972;7.072;2023-04-26T12:54:11;101372.75;;;12.42;44.46
8140;BME280;4111;50.972;7.072;2023-04-26T12:56:37;101371.75;;;12.48;44.60
8140;BME280;4111;50.972;7.072;2023-04-26T12:59:08;101374.25;;;12.09;43.97
8140;BME280;4111;50.972;7.072;2023-04-26T13:01:35;101373.78;;;12.13;44.52
8140;BME280;4111;50.972;7.072;2023-04-26T13:04:01;101365.91;;;12.28;44.04
8140;BME280;4111;50.972;7.072;2023-04-26T13:06:31;101369.72;;;12.27;43.91
8140;BME280;4111;50.972;7.072;2023-04-26T13:08:57;101357.78;;;12.45;43.87
8140;BME280;4111;50.972;7.072;2023-04-26T13:11:24;101354.91;;;12.52;44.15
8140;BME280;4111;50.972;7.072;2023-04-26T13:13:50;101351.41;;;12.68;43.93
8140;BME280;4111;50.972;7.072;2023-04-26T13:16:16;101351.75;;;12.88;44.55
8140;BME280;4111;50.972;7.072;2023-04-26T13:18:43;101345.06;;;13.13;44.08
8140;BME280;4111;50.972;7.072;2023-04-26T13:21:09;101343.72;;;13.49;44.24
8140;BME280;4111;50.972;7.072;2023-04-26T13:23:36;101345.34;;;13.89;43.51
8140;BME280;4111;50.972;7.072;2023-04-26T13:26:02;101344.97;;;13.81;42.20
8140;BME280;4111;50.972;7.072;2023-04-26T13:28:28;101347.31;;;14.16;42.53
8140;BME280;4111;50.972;7.072;2023-04-26T13:30:55;101350.59;;;14.18;41.94
8140;BME280;4111;50.972;7.072;2023-04-26T13:33:21;101349.97;;;13.89;41.83
8140;BME280;4111;50.972;7.072;2023-04-26T13:35:48;101360.44;;;13.97;42.08
8140;BME280;4111;50.972;7.072;2023-04-26T13:38:14;101367.41;;;13.88;41.24